Aviation Digital Data Service (ADDS)

Output produced by METARs form (1935 UTC 25 March 2017)
found at http://www.aviationweather.gov/adds/metars/
 
LJLJ 251930Z VRB01KT CAVOK 08/04 Q1020 NOSIG
TAF LJLJ 251700Z 2518/2618 11003KT 9999 FEW035 
     BECMG 2606/2608 BKN060 
     BECMG 2608/2610 10010KT 
     TEMPO 2610/2614 -RA BKN035 
     BECMG 2614/2615 FEW050
       
LJMB 251930Z 35002KT CAVOK 08/03 Q1021
TAF LJMB 251700Z 2518/2618 08003KT CAVOK 
     BECMG 2604/2606 02010KT FEW040 BKN060 
     PROB40 
     TEMPO 2609/2613 -RA BKN035 
     BECMG 2613/2614 FEW045
       
LJPZ 251930Z 13003KT CAVOK 12/08 Q1017
TAF LJPZ 251700Z 2518/2603 12005KT CAVOK 
     BECMG 2600/2602 BKN070